createdAt,value
2022-11-12T00:00:59.114Z,11.04
2022-11-12T00:03:26.102Z,11.01
2022-11-12T00:05:53.440Z,11.06
2022-11-12T00:08:20.573Z,11.03
2022-11-12T00:10:47.511Z,11.08
2022-11-12T00:13:14.310Z,11.02
2022-11-12T00:15:41.053Z,11.02
2022-11-12T00:18:08.023Z,11.04
2022-11-12T00:20:35.346Z,10.90
2022-11-12T00:23:02.360Z,10.86
2022-11-12T00:25:29.364Z,10.82
2022-11-12T00:28:05.702Z,10.69
2022-11-12T00:30:32.494Z,10.60
2022-11-12T00:33:02.980Z,10.47
2022-11-12T00:35:32.113Z,10.47
2022-11-12T00:37:59.181Z,10.41
2022-11-12T00:40:26.345Z,10.37
2022-11-12T00:42:53.397Z,10.30
2022-11-12T00:45:21.163Z,10.37
2022-11-12T00:47:48.154Z,10.43
2022-11-12T00:50:16.116Z,10.39
2022-11-12T00:52:43.143Z,10.47
2022-11-12T00:55:09.969Z,10.42
2022-11-12T00:57:36.544Z,10.39
2022-11-12T01:00:05.698Z,10.33
2022-11-12T01:02:35.699Z,10.45
2022-11-12T01:05:05.520Z,10.33
2022-11-12T01:07:32.232Z,10.44
2022-11-12T01:09:58.801Z,10.46
2022-11-12T01:12:25.418Z,10.44
2022-11-12T01:14:52.801Z,10.46
2022-11-12T01:17:19.331Z,10.46
2022-11-12T01:19:45.924Z,10.41
2022-11-12T01:22:12.466Z,10.47
2022-11-12T01:24:39.171Z,10.48
2022-11-12T01:27:05.768Z,10.53
2022-11-12T01:29:32.436Z,10.53
2022-11-12T01:31:59.063Z,10.50
2022-11-12T01:34:25.981Z,10.48
2022-11-12T01:36:52.559Z,10.49
2022-11-12T01:39:19.142Z,10.39
2022-11-12T01:41:45.694Z,10.36
2022-11-12T01:44:32.591Z,10.36
2022-11-12T01:47:23.719Z,10.39
2022-11-12T01:49:57.349Z,10.41
2022-11-12T01:52:27.093Z,10.39
2022-11-12T01:54:58.450Z,10.38
2022-11-12T01:57:35.062Z,10.35
2022-11-12T02:00:06.803Z,10.36
2022-11-12T02:02:35.464Z,10.37
2022-11-12T02:05:05.298Z,10.41
2022-11-12T02:07:33.200Z,10.41
2022-11-12T02:10:02.144Z,10.42
2022-11-12T02:12:47.741Z,10.40
2022-11-12T02:15:14.441Z,10.36
2022-11-12T02:17:41.068Z,10.36
2022-11-12T02:20:14.564Z,10.32
2022-11-12T02:22:41.133Z,10.33
2022-11-12T02:25:12.937Z,10.30
2022-11-12T02:27:39.767Z,10.33
2022-11-12T02:30:06.822Z,10.33
2022-11-12T02:32:33.397Z,10.28
2022-11-12T02:34:59.943Z,10.33
2022-11-12T02:37:26.551Z,10.28
2022-11-12T02:39:53.122Z,10.18
2022-11-12T02:42:19.712Z,10.18
2022-11-12T02:44:46.344Z,10.20
2022-11-12T02:47:12.919Z,10.19
2022-11-12T02:49:39.442Z,10.20
2022-11-12T02:52:06.076Z,10.25
2022-11-12T02:54:32.670Z,10.19
2022-11-12T02:56:59.222Z,10.19
2022-11-12T02:59:25.753Z,10.14
2022-11-12T03:01:52.300Z,10.17
2022-11-12T03:04:18.867Z,10.10
2022-11-12T03:06:45.477Z,10.02
2022-11-12T03:09:12.806Z,9.98
2022-11-12T03:11:39.349Z,9.94
2022-11-12T03:14:05.914Z,9.92
2022-11-12T03:16:32.473Z,9.82
2022-11-12T03:18:59.096Z,9.69
2022-11-12T03:21:25.636Z,9.57
2022-11-12T03:23:52.160Z,9.58
2022-11-12T03:26:18.721Z,9.46
2022-11-12T03:28:45.277Z,9.35
2022-11-12T03:31:12.022Z,9.28
2022-11-12T03:33:38.642Z,9.28
2022-11-12T03:36:05.614Z,9.20
2022-11-12T03:38:32.220Z,9.17
2022-11-12T03:40:58.787Z,9.17
2022-11-12T03:43:25.401Z,9.10
2022-11-12T03:45:52.001Z,9.09
2022-11-12T03:48:18.512Z,9.05
2022-11-12T03:50:45.090Z,8.96
2022-11-12T03:53:11.696Z,8.91
2022-11-12T03:55:38.280Z,8.91
2022-11-12T03:58:04.961Z,8.93
2022-11-12T04:00:31.642Z,8.95
2022-11-12T04:02:59.362Z,8.88
2022-11-12T04:05:45.411Z,8.87
2022-11-12T04:08:36.363Z,8.84
2022-11-12T04:11:07.936Z,8.81
2022-11-12T04:13:35.207Z,8.84
2022-11-12T04:16:33.525Z,8.83
2022-11-12T04:19:20.584Z,8.81
2022-11-12T04:21:56.392Z,8.80
2022-11-12T04:24:53.938Z,8.74
2022-11-12T04:27:32.134Z,8.76
2022-11-12T04:30:18.847Z,8.83
2022-11-12T04:32:54.682Z,8.85
2022-11-12T04:35:25.954Z,8.84
2022-11-12T04:37:53.185Z,8.85
2022-11-12T04:40:41.585Z,8.85
2022-11-12T04:43:35.163Z,8.83
2022-11-12T04:46:03.314Z,8.80
2022-11-12T04:48:30.694Z,8.75
2022-11-12T04:51:00.175Z,8.77
2022-11-12T04:53:27.836Z,8.79
2022-11-12T04:55:56.748Z,8.73
2022-11-12T04:58:24.085Z,8.75
2022-11-12T05:00:51.440Z,8.72
2022-11-12T05:03:18.723Z,8.67
2022-11-12T05:05:45.356Z,8.71
2022-11-12T05:08:11.950Z,8.64
2022-11-12T05:10:38.552Z,8.60
2022-11-12T05:13:05.129Z,8.57
2022-11-12T05:15:31.702Z,8.58
2022-11-12T05:17:58.326Z,8.48
2022-11-12T05:20:24.873Z,8.53
2022-11-12T05:23:05.614Z,8.55
2022-11-12T05:25:35.416Z,8.52
2022-11-12T05:28:01.986Z,8.55
2022-11-12T05:30:28.526Z,8.60
2022-11-12T05:32:55.082Z,8.54
2022-11-12T05:35:21.642Z,8.54
2022-11-12T05:37:48.216Z,8.53
2022-11-12T05:40:14.828Z,8.54
2022-11-12T05:42:41.504Z,8.50
2022-11-12T05:45:08.678Z,8.53
2022-11-12T05:47:35.250Z,8.45
2022-11-12T05:50:01.788Z,8.53
2022-11-12T05:52:28.406Z,8.49
2022-11-12T05:54:54.973Z,8.54
2022-11-12T05:57:21.569Z,8.51
2022-11-12T05:59:48.126Z,8.53
2022-11-12T06:02:14.744Z,8.52
2022-11-12T06:04:41.378Z,8.57
2022-11-12T06:07:07.960Z,8.60
2022-11-12T06:09:34.565Z,8.60
2022-11-12T06:12:02.491Z,8.64
2022-11-12T06:14:29.049Z,8.67
2022-11-12T06:16:55.627Z,8.69
2022-11-12T06:19:22.161Z,8.72
2022-11-12T06:21:49.901Z,8.69
2022-11-12T06:24:16.989Z,8.67
2022-11-12T06:26:43.530Z,8.69
2022-11-12T06:29:10.123Z,8.70
2022-11-12T06:31:36.689Z,8.66
2022-11-12T06:34:03.260Z,8.64
2022-11-12T06:36:29.924Z,8.66
2022-11-12T06:38:56.853Z,8.65
2022-11-12T06:41:23.400Z,8.69
2022-11-12T06:43:49.946Z,8.66
2022-11-12T06:46:17.531Z,8.69
2022-11-12T06:48:44.219Z,8.59
2022-11-12T06:51:17.080Z,8.61
2022-11-12T06:53:44.009Z,8.66
2022-11-12T06:56:12.668Z,8.70
2022-11-12T06:58:39.815Z,8.74
2022-11-12T07:01:17.180Z,8.78
2022-11-12T07:03:44.729Z,8.84
2022-11-12T07:06:19.251Z,8.82
2022-11-12T07:08:50.009Z,8.86
2022-11-12T07:11:17.952Z,8.83
2022-11-12T07:13:45.966Z,8.88
2022-11-12T07:16:22.676Z,8.90
2022-11-12T07:18:49.796Z,8.86
2022-11-12T07:21:19.204Z,8.88
2022-11-12T07:23:47.137Z,8.86
2022-11-12T07:26:17.961Z,8.89
2022-11-12T07:28:45.861Z,8.91
2022-11-12T07:31:14.310Z,8.92
2022-11-12T07:33:41.930Z,8.89
2022-11-12T07:36:10.903Z,8.88
2022-11-12T07:38:39.073Z,8.87
2022-11-12T07:41:08.604Z,8.93
2022-11-12T07:43:36.538Z,8.93
2022-11-12T07:46:10.488Z,8.96
2022-11-12T07:48:38.470Z,9.00
2022-11-12T07:51:16.817Z,9.04
2022-11-12T07:53:44.856Z,9.02
2022-11-12T07:56:13.571Z,9.09
2022-11-12T07:58:40.468Z,9.15
2022-11-12T08:01:09.122Z,9.23
2022-11-12T08:03:36.089Z,9.34
2022-11-12T08:06:03.161Z,9.49
2022-11-12T08:08:30.040Z,9.53
2022-11-12T08:10:57.640Z,9.65
2022-11-12T08:13:24.652Z,9.82
2022-11-12T08:15:52.520Z,10.05
2022-11-12T08:18:19.155Z,10.28
2022-11-12T08:20:45.753Z,10.44
2022-11-12T08:23:12.382Z,10.54
2022-11-12T08:25:38.922Z,10.62
2022-11-12T08:28:05.582Z,10.63
2022-11-12T08:30:32.182Z,10.64
2022-11-12T08:33:04.316Z,10.65
2022-11-12T08:35:32.185Z,10.79
2022-11-12T08:38:02.938Z,10.87
2022-11-12T08:40:33.214Z,11.01
2022-11-12T08:43:01.831Z,11.00
2022-11-12T08:45:29.479Z,11.09
2022-11-12T08:48:14.747Z,11.10
2022-11-12T08:50:41.747Z,11.05
2022-11-12T08:53:13.507Z,10.96
2022-11-12T08:55:40.106Z,10.95
2022-11-12T08:58:07.396Z,10.88
2022-11-12T09:00:37.263Z,11.00
2022-11-12T09:03:05.769Z,10.86
2022-11-12T09:05:34.020Z,10.93
2022-11-12T09:08:03.905Z,10.89
2022-11-12T09:10:30.731Z,10.97
2022-11-12T09:12:57.891Z,10.81
2022-11-12T09:15:40.996Z,10.89
2022-11-12T09:18:11.804Z,10.96
2022-11-12T09:20:38.409Z,10.99
2022-11-12T09:23:10.605Z,11.09
2022-11-12T09:25:37.872Z,11.18
2022-11-12T09:28:15.857Z,11.19
2022-11-12T09:30:47.710Z,11.24
2022-11-12T09:33:16.190Z,11.27
2022-11-12T09:35:43.102Z,11.26
2022-11-12T09:38:09.772Z,11.30
2022-11-12T09:40:56.534Z,11.26
2022-11-12T09:43:50.385Z,11.28
2022-11-12T09:46:45.953Z,11.27
2022-11-12T09:49:24.918Z,11.39
2022-11-12T09:52:04.801Z,11.36
2022-11-12T09:54:33.341Z,11.14
2022-11-12T09:57:00.041Z,11.02
2022-11-12T09:59:32.081Z,11.01
2022-11-12T10:02:31.896Z,10.89
2022-11-12T10:05:48.077Z,10.83
2022-11-12T10:08:57.048Z,10.90
2022-11-12T10:11:52.200Z,10.85
2022-11-12T10:14:58.412Z,10.80
2022-11-12T10:17:33.628Z,10.79
2022-11-12T10:20:26.172Z,10.65
2022-11-12T10:23:11.188Z,10.63
2022-11-12T10:25:38.962Z,10.64
2022-11-12T10:28:21.648Z,10.70
2022-11-12T10:30:48.277Z,10.77
2022-11-12T10:33:15.968Z,10.75
2022-11-12T10:35:42.558Z,10.79
2022-11-12T10:38:15.792Z,10.74
2022-11-12T10:40:42.994Z,10.76
2022-11-12T10:43:15.354Z,10.79
2022-11-12T10:45:43.037Z,10.74
2022-11-12T10:48:34.519Z,10.71
2022-11-12T10:51:02.779Z,10.65
2022-11-12T10:53:33.919Z,10.71
2022-11-12T10:56:05.525Z,10.72
2022-11-12T10:58:32.261Z,10.77
2022-11-12T11:01:12.989Z,10.83
2022-11-12T11:03:54.209Z,10.88
2022-11-12T11:06:24.823Z,10.73
2022-11-12T11:08:53.329Z,10.77
2022-11-12T11:11:24.860Z,10.81
2022-11-12T11:13:55.737Z,10.87
2022-11-12T11:16:28.132Z,10.94
2022-11-12T11:19:05.773Z,10.99
2022-11-12T11:21:32.336Z,11.04
2022-11-12T11:24:27.398Z,11.09
2022-11-12T11:27:02.288Z,11.11
2022-11-12T11:29:51.126Z,11.15
2022-11-12T11:32:54.137Z,11.22
2022-11-12T11:35:26.137Z,11.31
2022-11-12T11:38:13.519Z,11.38
2022-11-12T11:40:53.095Z,11.45
2022-11-12T11:43:43.200Z,11.51
2022-11-12T11:46:18.580Z,11.54
2022-11-12T11:49:18.841Z,11.55
2022-11-12T11:52:04.740Z,11.63
2022-11-12T11:55:07.741Z,11.64
2022-11-12T11:57:46.938Z,11.57
2022-11-12T12:00:21.128Z,11.61
2022-11-12T12:03:14.449Z,11.65
2022-11-12T12:05:43.970Z,11.63
2022-11-12T12:08:18.448Z,11.57
2022-11-12T12:11:09.310Z,11.53
2022-11-12T12:13:51.295Z,11.56
2022-11-12T12:16:54.990Z,11.58
2022-11-12T12:19:47.552Z,11.57
2022-11-12T12:22:19.405Z,11.55
2022-11-12T12:24:51.449Z,11.56
2022-11-12T12:27:23.105Z,11.54
2022-11-12T12:29:56.733Z,11.63
2022-11-12T12:32:41.032Z,11.62
2022-11-12T12:35:34.722Z,11.56
2022-11-12T12:38:26.076Z,11.55
2022-11-12T12:41:01.844Z,11.62
2022-11-12T12:43:45.930Z,11.56
2022-11-12T12:46:15.990Z,11.52
2022-11-12T12:48:45.140Z,11.53
2022-11-12T12:51:12.186Z,11.51
2022-11-12T12:53:40.246Z,11.50
2022-11-12T12:56:32.879Z,11.50
2022-11-12T12:59:04.048Z,11.51
2022-11-12T13:01:34.392Z,11.48
2022-11-12T13:04:08.928Z,11.43
2022-11-12T13:06:39.904Z,11.48
2022-11-12T13:09:12.764Z,11.46
2022-11-12T13:12:00.503Z,11.48
2022-11-12T13:14:36.033Z,11.44
2022-11-12T13:17:12.944Z,11.48
2022-11-12T13:19:52.955Z,11.50
2022-11-12T13:22:19.488Z,11.47
2022-11-12T13:25:04.737Z,11.49
2022-11-12T13:27:40.383Z,11.54
2022-11-12T13:30:20.641Z,11.58
2022-11-12T13:32:47.157Z,11.67
2022-11-12T13:35:22.559Z,11.77
2022-11-12T13:37:59.219Z,11.99
2022-11-12T13:40:53.436Z,12.09
2022-11-12T13:43:39.077Z,12.16
2022-11-12T13:46:11.585Z,12.19
2022-11-12T13:49:08.727Z,12.18
2022-11-12T13:51:43.559Z,12.21
2022-11-12T13:54:30.095Z,12.27
2022-11-12T13:56:56.916Z,12.23
2022-11-12T13:59:25.812Z,12.26
2022-11-12T14:01:52.618Z,12.23
2022-11-12T14:04:24.499Z,12.26
2022-11-12T14:07:09.341Z,12.33
2022-11-12T14:10:08.520Z,12.39
2022-11-12T14:13:09.804Z,12.38
2022-11-12T14:15:57.826Z,12.29
2022-11-12T14:18:41.254Z,12.26
2022-11-12T14:21:15.525Z,12.22
2022-11-12T14:23:45.754Z,12.17
2022-11-12T14:26:14.024Z,12.12
2022-11-12T14:28:41.095Z,12.07
2022-11-12T14:31:13.797Z,11.94
2022-11-12T14:33:40.707Z,11.93
2022-11-12T14:36:13.355Z,11.86
2022-11-12T14:38:41.268Z,11.86
2022-11-12T14:41:19.551Z,11.80
2022-11-12T14:44:11.133Z,11.77
2022-11-12T14:46:50.684Z,11.75
2022-11-12T14:49:28.390Z,11.79
2022-11-12T14:52:03.963Z,11.85
2022-11-12T14:54:40.036Z,11.79
2022-11-12T14:57:10.174Z,11.74
2022-11-12T14:59:36.815Z,11.72
2022-11-12T15:05:14.437Z,11.59
2022-11-12T15:08:11.906Z,11.59
2022-11-12T15:10:44.449Z,11.57
2022-11-12T15:13:23.598Z,11.48
2022-11-12T15:16:05.366Z,11.45
2022-11-12T15:18:33.557Z,11.42
2022-11-12T15:21:12.070Z,11.37
2022-11-12T15:23:49.820Z,11.31
2022-11-12T15:26:35.227Z,11.26
2022-11-12T15:29:12.121Z,11.31
2022-11-12T15:31:49.829Z,11.32
2022-11-12T15:34:34.805Z,11.35
2022-11-12T15:37:17.828Z,11.35
2022-11-12T15:39:48.930Z,11.37
2022-11-12T15:42:27.409Z,11.40
2022-11-12T15:45:02.422Z,11.40
2022-11-12T15:47:29.449Z,11.42
2022-11-12T15:49:58.922Z,11.44
2022-11-12T15:52:26.461Z,11.42
2022-11-12T15:54:53.229Z,11.44
2022-11-12T15:57:27.345Z,11.41
2022-11-12T16:00:15.715Z,11.42
2022-11-12T16:02:43.094Z,11.47
2022-11-12T16:05:14.300Z,11.49
2022-11-12T16:07:40.886Z,11.43
2022-11-12T16:10:12.147Z,11.50
2022-11-12T16:12:38.840Z,11.50
2022-11-12T16:15:18.355Z,11.50
2022-11-12T16:17:45.983Z,11.53
2022-11-12T16:20:35.925Z,11.57
2022-11-12T16:23:02.786Z,11.61
2022-11-12T16:25:31.926Z,11.59
2022-11-12T16:28:00.984Z,11.63
2022-11-12T16:30:30.681Z,11.67
2022-11-12T16:32:58.532Z,11.68
2022-11-12T16:35:26.371Z,11.61
2022-11-12T16:37:54.666Z,11.67
2022-11-12T16:40:27.059Z,11.66
2022-11-12T16:42:54.870Z,11.71
2022-11-12T16:45:24.631Z,11.68
2022-11-12T16:47:56.287Z,11.70
2022-11-12T16:50:28.050Z,11.73
2022-11-12T16:52:54.792Z,11.74
2022-11-12T16:55:21.951Z,11.77
2022-11-12T16:57:48.511Z,11.79
2022-11-12T17:00:17.660Z,11.74
2022-11-12T17:02:49.391Z,11.78
2022-11-12T17:05:21.503Z,11.88
2022-11-12T17:07:49.046Z,11.90
2022-11-12T17:10:16.993Z,11.91
2022-11-12T17:12:43.643Z,12.01
2022-11-12T17:15:10.391Z,12.02
2022-11-12T17:17:37.058Z,12.02
2022-11-12T17:20:04.030Z,12.04
2022-11-12T17:22:31.404Z,12.10
2022-11-12T17:24:58.001Z,12.15
2022-11-12T17:27:24.611Z,12.18
2022-11-12T17:29:51.269Z,12.22
2022-11-12T17:32:17.820Z,12.20
2022-11-12T17:34:44.510Z,12.22
2022-11-12T17:37:11.298Z,12.24
2022-11-12T17:39:37.884Z,12.19
2022-11-12T17:42:04.587Z,12.27
2022-11-12T17:44:31.137Z,12.26
2022-11-12T17:46:57.766Z,12.27
2022-11-12T17:49:24.918Z,12.35
2022-11-12T17:51:51.464Z,12.34
2022-11-12T17:54:18.085Z,12.30
2022-11-12T17:56:44.731Z,12.32
2022-11-12T17:59:11.305Z,12.31
2022-11-12T18:01:37.998Z,12.29
2022-11-12T18:04:04.825Z,12.18
2022-11-12T18:06:33.670Z,12.26
2022-11-12T18:09:05.852Z,12.20
2022-11-12T18:11:42.798Z,12.25
2022-11-12T18:14:10.011Z,12.22
2022-11-12T18:16:36.796Z,12.22
2022-11-12T18:19:04.049Z,12.20
2022-11-12T18:21:30.771Z,12.22
2022-11-12T18:23:57.321Z,12.28
2022-11-12T18:26:23.922Z,12.23
2022-11-12T18:28:55.458Z,12.18
2022-11-12T18:31:24.800Z,12.12
2022-11-12T18:33:52.255Z,12.12
2022-11-12T18:36:25.206Z,12.12
2022-11-12T18:38:55.474Z,11.98
2022-11-12T18:41:25.974Z,11.94
2022-11-12T18:43:56.815Z,11.93
2022-11-12T18:46:23.737Z,11.90
2022-11-12T18:48:50.364Z,11.91
2022-11-12T18:51:18.912Z,11.88
2022-11-12T18:53:46.322Z,11.88
2022-11-12T18:56:18.176Z,11.81
2022-11-12T18:58:45.141Z,11.82
2022-11-12T19:01:15.954Z,11.83
2022-11-12T19:03:43.232Z,11.78
2022-11-12T19:06:12.451Z,11.78
2022-11-12T19:08:39.197Z,11.74
2022-11-12T19:11:15.947Z,11.74
2022-11-12T19:13:42.808Z,11.69
2022-11-12T19:16:17.040Z,11.64
2022-11-12T19:18:45.017Z,11.66
2022-11-12T19:21:14.061Z,11.63
2022-11-12T19:23:42.146Z,11.63
2022-11-12T19:26:12.300Z,11.60
2022-11-12T19:28:39.390Z,11.64
2022-11-12T19:31:08.165Z,11.64
2022-11-12T19:33:35.053Z,11.57
2022-11-12T19:36:06.873Z,11.60
2022-11-12T19:38:33.691Z,11.52
2022-11-12T19:41:17.705Z,11.53
2022-11-12T19:43:45.904Z,11.52
2022-11-12T19:46:12.702Z,11.51
2022-11-12T19:48:39.303Z,11.49
2022-11-12T19:51:08.629Z,11.50
2022-11-12T19:53:38.362Z,11.48
2022-11-12T19:56:06.697Z,11.48
2022-11-12T19:58:34.324Z,11.53
2022-11-12T20:01:12.535Z,11.50
2022-11-12T20:03:39.703Z,11.46
2022-11-12T20:06:09.174Z,11.55
2022-11-12T20:08:35.960Z,11.44
2022-11-12T20:11:02.961Z,11.39
2022-11-12T20:13:29.745Z,11.41
2022-11-12T20:15:56.389Z,11.36
2022-11-12T20:18:23.311Z,11.39
2022-11-12T20:20:55.197Z,11.33
2022-11-12T20:23:23.654Z,11.27
2022-11-12T20:25:51.384Z,11.20
2022-11-12T20:28:18.129Z,11.19
2022-11-12T20:30:45.336Z,11.17
2022-11-12T20:33:14.823Z,11.14
2022-11-12T20:35:41.492Z,11.10
2022-11-12T20:38:08.546Z,11.12
2022-11-12T20:40:35.124Z,11.09
2022-11-12T20:43:01.755Z,11.08
2022-11-12T20:45:28.516Z,11.14
2022-11-12T20:47:56.256Z,11.10
2022-11-12T20:50:23.587Z,11.20
2022-11-12T20:52:50.265Z,11.17
2022-11-12T20:55:17.539Z,11.19
2022-11-12T20:57:44.750Z,11.19
2022-11-12T21:00:14.098Z,11.17
2022-11-12T21:02:42.211Z,11.15
2022-11-12T21:05:09.183Z,11.18
2022-11-12T21:07:35.809Z,11.17
2022-11-12T21:10:02.492Z,11.17
2022-11-12T21:12:30.756Z,11.20
2022-11-12T21:14:57.333Z,11.22
2022-11-12T21:17:23.905Z,11.22
2022-11-12T21:19:50.509Z,11.23
2022-11-12T21:22:17.285Z,11.24
2022-11-12T21:24:43.917Z,11.23
2022-11-12T21:27:11.796Z,11.28
2022-11-12T21:29:38.443Z,11.28
2022-11-12T21:32:05.445Z,11.31
2022-11-12T21:34:32.093Z,11.27
2022-11-12T21:36:58.649Z,11.24
2022-11-12T21:39:25.182Z,11.30
2022-11-12T21:41:53.951Z,11.32
2022-11-12T21:44:20.880Z,11.36
2022-11-12T21:46:47.508Z,11.36
2022-11-12T21:49:14.089Z,11.39
2022-11-12T21:51:40.735Z,11.43
2022-11-12T21:54:07.760Z,11.47
2022-11-12T21:56:34.622Z,11.54
2022-11-12T21:59:01.594Z,11.53
2022-11-12T22:01:30.525Z,11.56
2022-11-12T22:03:59.524Z,11.58
2022-11-12T22:06:28.695Z,11.61
2022-11-12T22:08:56.982Z,11.63
2022-11-12T22:11:24.389Z,11.65
2022-11-12T22:13:51.033Z,11.69
2022-11-12T22:16:19.441Z,11.71
2022-11-12T22:18:48.291Z,11.70
2022-11-12T22:21:17.757Z,11.76
2022-11-12T22:23:44.816Z,11.75
2022-11-12T22:26:16.512Z,11.78
2022-11-12T22:28:43.485Z,11.77
2022-11-12T22:31:12.772Z,11.76
2022-11-12T22:33:39.459Z,11.78
2022-11-12T22:36:14.916Z,11.81
2022-11-12T22:38:47.303Z,11.79
2022-11-12T22:41:16.849Z,11.77
2022-11-12T22:43:47.328Z,11.81
2022-11-12T22:46:19.649Z,11.85
2022-11-12T22:48:46.294Z,11.86
2022-11-12T22:51:15.455Z,11.88
2022-11-12T22:53:42.045Z,11.93
2022-11-12T22:56:12.164Z,11.95
2022-11-12T22:58:40.415Z,11.95
2022-11-12T23:01:11.062Z,11.94
2022-11-12T23:03:37.850Z,11.96
2022-11-12T23:06:06.380Z,12.05
2022-11-12T23:08:35.827Z,12.05
2022-11-12T23:11:08.591Z,12.13
2022-11-12T23:13:35.686Z,12.11
2022-11-12T23:16:06.039Z,12.16
2022-11-12T23:18:32.600Z,12.16
2022-11-12T23:21:04.790Z,12.17
2022-11-12T23:23:31.421Z,12.19
2022-11-12T23:26:10.179Z,12.20
2022-11-12T23:28:37.305Z,12.25
2022-11-12T23:31:05.525Z,12.25
2022-11-12T23:33:32.105Z,12.25
2022-11-12T23:36:07.148Z,12.25
2022-11-12T23:38:33.950Z,12.22
2022-11-12T23:41:01.749Z,12.23
2022-11-12T23:43:28.338Z,12.24
2022-11-12T23:45:55.396Z,12.28
2022-11-12T23:48:22.368Z,12.29
2022-11-12T23:50:50.651Z,12.29
2022-11-12T23:53:18.118Z,12.29
2022-11-12T23:55:44.866Z,12.31
2022-11-12T23:58:11.551Z,12.30
